sensor_id;sensor_type;location;lat;lon;timestamp;pressure;altitude;pressure_sealevel;temperature;humidity
68965;BME280;56017;48.680;8.998;2023-01-19T00:01:03;95620;;;-2.7;81
68965;BME280;56017;48.680;8.998;2023-01-19T00:03:34;95620;;;-2.7;81
68965;BME280;56017;48.680;8.998;2023-01-19T00:06:06;95620;;;-2.7;81
68965;BME280;56017;48.680;8.998;2023-01-19T00:08:36;95620;;;-2.8;81
68965;BME280;56017;48.680;8.998;2023-01-19T00:11:07;95630;;;-2.8;81
68965;BME280;56017;48.680;8.998;2023-01-19T00:13:39;95630;;;-2.8;80.5
68965;BME280;56017;48.680;8.998;2023-01-19T00:16:16;95630;;;-2.9;80
68965;BME280;56017;48.680;8.998;2023-01-19T00:18:40;95630;;;-2.9;80.5
68965;BME280;56017;48.680;8.998;2023-01-19T00:21:11;95630;;;-3;80
68965;BME280;56017;48.680;8.998;2023-01-19T00:23:43;95630;;;-3.2;80
68965;BME280;56017;48.680;8.998;2023-01-19T00:26:14;95640;;;-3.3;81
68965;BME280;56017;48.680;8.998;2023-01-19T00:28:44;95630;;;-3.2;81.5
68965;BME280;56017;48.680;8.998;2023-01-19T00:31:15;95640;;;-3;81.5
68965;BME280;56017;48.680;8.998;2023-01-19T00:33:46;95630;;;-3;81
68965;BME280;56017;48.680;8.998;2023-01-19T00:36:24;95630;;;-2.9;81
68965;BME280;56017;48.680;8.998;2023-01-19T00:38:48;95630;;;-2.8;81
68965;BME280;56017;48.680;8.998;2023-01-19T00:41:26;95630;;;-2.8;81.5
68965;BME280;56017;48.680;8.998;2023-01-19T00:43:50;95630;;;-2.7;81
68965;BME280;56017;48.680;8.998;2023-01-19T00:46:21;95640;;;-2.7;81
68965;BME280;56017;48.680;8.998;2023-01-19T00:48:52;95640;;;-2.7;80.5
68965;BME280;56017;48.680;8.998;2023-01-19T00:51:23;95640;;;-2.8;80.5
68965;BME280;56017;48.680;8.998;2023-01-19T00:53:54;95640;;;-2.8;80.5
68965;BME280;56017;48.680;8.998;2023-01-19T00:56:32;95640;;;-2.7;80.5
68965;BME280;56017;48.680;8.998;2023-01-19T00:58:56;95650;;;-2.8;80
68965;BME280;56017;48.680;8.998;2023-01-19T01:01:33;95650;;;-2.9;79.5
68965;BME280;56017;48.680;8.998;2023-01-19T01:03:58;95660;;;-3.1;80
68965;BME280;56017;48.680;8.998;2023-01-19T01:06:29;95650;;;-3.2;80
68965;BME280;56017;48.680;8.998;2023-01-19T01:09:00;95650;;;-3.2;80
68965;BME280;56017;48.680;8.998;2023-01-19T01:14:02;95650;;;-3.2;79.5
68965;BME280;56017;48.680;8.998;2023-01-19T01:16:33;95650;;;-3.4;80
68965;BME280;56017;48.680;8.998;2023-01-19T01:19:04;95650;;;-3.3;80.5
68965;BME280;56017;48.680;8.998;2023-01-19T01:21:35;95650;;;-3.3;80.5
68965;BME280;56017;48.680;8.998;2023-01-19T01:24:06;95660;;;-3.3;81
68965;BME280;56017;48.680;8.998;2023-01-19T01:26:43;95660;;;-3.2;81
68965;BME280;56017;48.680;8.998;2023-01-19T01:29:08;95660;;;-3.2;81
68965;BME280;56017;48.680;8.998;2023-01-19T01:31:39;95660;;;-3.2;80.5
68965;BME280;56017;48.680;8.998;2023-01-19T01:34:10;95660;;;-3.1;81.5
68965;BME280;56017;48.680;8.998;2023-01-19T01:36:41;95660;;;-3;81.5
68965;BME280;56017;48.680;8.998;2023-01-19T01:39:12;95660;;;-2.9;81.5
68965;BME280;56017;48.680;8.998;2023-01-19T01:41:43;95660;;;-2.9;81.5
68965;BME280;56017;48.680;8.998;2023-01-19T01:44:52;95660;;;-2.8;81.5
68965;BME280;56017;48.680;8.998;2023-01-19T01:46:51;95660;;;-2.7;81.5
68965;BME280;56017;48.680;8.998;2023-01-19T01:49:15;95660;;;-2.7;81.5
68965;BME280;56017;48.680;8.998;2023-01-19T01:51:47;95670;;;-2.6;81.5
68965;BME280;56017;48.680;8.998;2023-01-19T01:54:22;95660;;;-2.7;81.5
68965;BME280;56017;48.680;8.998;2023-01-19T01:56:56;95660;;;-2.7;81
68965;BME280;56017;48.680;8.998;2023-01-19T01:59:21;95660;;;-2.7;81
68965;BME280;56017;48.680;8.998;2023-01-19T02:01:58;95670;;;-2.6;81.5
68965;BME280;56017;48.680;8.998;2023-01-19T02:04:21;95660;;;-2.6;81
68965;BME280;56017;48.680;8.998;2023-01-19T02:06:59;95660;;;-2.5;81
68965;BME280;56017;48.680;8.998;2023-01-19T02:09:23;95660;;;-2.5;81.5
68965;BME280;56017;48.680;8.998;2023-01-19T02:11:54;95660;;;-2.6;81.5
68965;BME280;56017;48.680;8.998;2023-01-19T02:14:26;95660;;;-2.6;81.5
68965;BME280;56017;48.680;8.998;2023-01-19T02:17:03;95660;;;-2.6;81
68965;BME280;56017;48.680;8.998;2023-01-19T02:19:29;95660;;;-2.8;81
68965;BME280;56017;48.680;8.998;2023-01-19T02:22:00;95660;;;-2.8;81.5
68965;BME280;56017;48.680;8.998;2023-01-19T02:24:32;95650;;;-2.7;81.5
68965;BME280;56017;48.680;8.998;2023-01-19T02:27:07;95660;;;-2.6;82
68965;BME280;56017;48.680;8.998;2023-01-19T02:29:31;95660;;;-2.6;82
68965;BME280;56017;48.680;8.998;2023-01-19T02:32:03;95650;;;-2.5;81.5
68965;BME280;56017;48.680;8.998;2023-01-19T02:34:33;95650;;;-2.5;82
68965;BME280;56017;48.680;8.998;2023-01-19T02:37:11;95650;;;-2.4;82
68965;BME280;56017;48.680;8.998;2023-01-19T02:39:35;95660;;;-2.4;82
68965;BME280;56017;48.680;8.998;2023-01-19T02:42:07;95660;;;-2.4;82
68965;BME280;56017;48.680;8.998;2023-01-19T02:44:37;95660;;;-2.4;82
68965;BME280;56017;48.680;8.998;2023-01-19T02:47:07;95670;;;-2.4;82.5
68965;BME280;56017;48.680;8.998;2023-01-19T02:49:38;95670;;;-2.3;82
68965;BME280;56017;48.680;8.998;2023-01-19T02:52:16;95670;;;-2.4;82
68965;BME280;56017;48.680;8.998;2023-01-19T02:54:45;95670;;;-2.4;82.5
68965;BME280;56017;48.680;8.998;2023-01-19T02:57:16;95670;;;-2.4;82.5
68965;BME280;56017;48.680;8.998;2023-01-19T02:59:47;95670;;;-2.4;82.5
68965;BME280;56017;48.680;8.998;2023-01-19T03:04:55;95670;;;-2.3;83
68965;BME280;56017;48.680;8.998;2023-01-19T03:09:49;95670;;;-2.2;82
68965;BME280;56017;48.680;8.998;2023-01-19T03:19:50;95670;;;-2.4;82
68965;BME280;56017;48.680;8.998;2023-01-19T03:22:23;95660;;;-2.3;82
68965;BME280;56017;48.680;8.998;2023-01-19T03:24:59;95670;;;-2.4;81
68965;BME280;56017;48.680;8.998;2023-01-19T03:27:25;95670;;;-2.5;81.5
68965;BME280;56017;48.680;8.998;2023-01-19T03:29:56;95670;;;-2.5;82
68965;BME280;56017;48.680;8.998;2023-01-19T03:32:28;95670;;;-2.5;81.5
68965;BME280;56017;48.680;8.998;2023-01-19T03:34:58;95670;;;-2.6;81.5
68965;BME280;56017;48.680;8.998;2023-01-19T03:37:27;95680;;;-2.7;82
68965;BME280;56017;48.680;8.998;2023-01-19T03:39:58;95670;;;-2.8;81.5
68965;BME280;56017;48.680;8.998;2023-01-19T03:42:29;95680;;;-2.8;81.5
68965;BME280;56017;48.680;8.998;2023-01-19T03:45:00;95670;;;-2.9;81
68965;BME280;56017;48.680;8.998;2023-01-19T03:47:31;95680;;;-2.9;81.5
68965;BME280;56017;48.680;8.998;2023-01-19T03:50:02;95680;;;-2.9;81.5
68965;BME280;56017;48.680;8.998;2023-01-19T03:52:34;95690;;;-2.9;81.5
68965;BME280;56017;48.680;8.998;2023-01-19T03:55:04;95690;;;-3;81
68965;BME280;56017;48.680;8.998;2023-01-19T03:57:41;95680;;;-3.2;80.5
68965;BME280;56017;48.680;8.998;2023-01-19T04:00:06;95690;;;-3.2;81
68965;BME280;56017;48.680;8.998;2023-01-19T04:02:43;95690;;;-3.3;81
68965;BME280;56017;48.680;8.998;2023-01-19T04:05:08;95690;;;-3.4;81
68965;BME280;56017;48.680;8.998;2023-01-19T04:10:10;95700;;;-3.2;81
68965;BME280;56017;48.680;8.998;2023-01-19T04:12:41;95700;;;-3;80.5
68965;BME280;56017;48.680;8.998;2023-01-19T04:15:12;95700;;;-3;80.5
68965;BME280;56017;48.680;8.998;2023-01-19T04:17:43;95700;;;-3;80
68965;BME280;56017;48.680;8.998;2023-01-19T04:20:14;95700;;;-3;80.5
68965;BME280;56017;48.680;8.998;2023-01-19T04:22:51;95700;;;-3;81
68965;BME280;56017;48.680;8.998;2023-01-19T04:25:16;95700;;;-2.7;81
68965;BME280;56017;48.680;8.998;2023-01-19T04:27:50;95710;;;-2.5;81
68965;BME280;56017;48.680;8.998;2023-01-19T04:30:18;95710;;;-2.4;81
68965;BME280;56017;48.680;8.998;2023-01-19T04:32:49;95710;;;-2.4;81.5
68965;BME280;56017;48.680;8.998;2023-01-19T04:35:20;95710;;;-2.3;81.5
68965;BME280;56017;48.680;8.998;2023-01-19T04:37:51;95700;;;-2.2;82
68965;BME280;56017;48.680;8.998;2023-01-19T04:40:22;95700;;;-2;82.5
68965;BME280;56017;48.680;8.998;2023-01-19T04:42:59;95700;;;-1.9;82
68965;BME280;56017;48.680;8.998;2023-01-19T04:45:24;95700;;;-1.9;82
68965;BME280;56017;48.680;8.998;2023-01-19T04:48:01;95700;;;-1.9;82
68965;BME280;56017;48.680;8.998;2023-01-19T04:50:31;95700;;;-1.9;81.5
68965;BME280;56017;48.680;8.998;2023-01-19T04:53:14;95700;;;-2.1;81
68965;BME280;56017;48.680;8.998;2023-01-19T04:55:31;95710;;;-2.2;81
68965;BME280;56017;48.680;8.998;2023-01-19T04:58:01;95710;;;-2.3;80.5
68965;BME280;56017;48.680;8.998;2023-01-19T05:02:56;95710;;;-2.5;81
68965;BME280;56017;48.680;8.998;2023-01-19T05:05:26;95710;;;-2.6;81.5
68965;BME280;56017;48.680;8.998;2023-01-19T05:07:57;95710;;;-2.6;81
68965;BME280;56017;48.680;8.998;2023-01-19T05:10:28;95720;;;-2.7;81.5
68965;BME280;56017;48.680;8.998;2023-01-19T05:12:59;95720;;;-2.7;82
68965;BME280;56017;48.680;8.998;2023-01-19T05:15:30;95720;;;-2.6;82
68965;BME280;56017;48.680;8.998;2023-01-19T05:18:01;95720;;;-2.6;81.5
68965;BME280;56017;48.680;8.998;2023-01-19T05:20:32;95710;;;-2.7;81.5
68965;BME280;56017;48.680;8.998;2023-01-19T05:23:03;95720;;;-2.6;82
68965;BME280;56017;48.680;8.998;2023-01-19T05:25:34;95720;;;-2.5;82
68965;BME280;56017;48.680;8.998;2023-01-19T05:28:05;95720;;;-2.4;82
68965;BME280;56017;48.680;8.998;2023-01-19T05:30:36;95730;;;-2.4;81.5
68965;BME280;56017;48.680;8.998;2023-01-19T05:35:44;95740;;;-2.6;82
68965;BME280;56017;48.680;8.998;2023-01-19T05:38:27;95740;;;-2.7;81.5
68965;BME280;56017;48.680;8.998;2023-01-19T05:40:45;95740;;;-2.7;81.5
68965;BME280;56017;48.680;8.998;2023-01-19T05:43:22;95740;;;-2.7;81.5
68965;BME280;56017;48.680;8.998;2023-01-19T05:45:45;95740;;;-2.7;81.5
68965;BME280;56017;48.680;8.998;2023-01-19T05:48:28;95740;;;-2.8;81.5
68965;BME280;56017;48.680;8.998;2023-01-19T05:50:45;95740;;;-2.9;81.5
68965;BME280;56017;48.680;8.998;2023-01-19T05:53:22;95750;;;-2.9;81.5
68965;BME280;56017;48.680;8.998;2023-01-19T05:55:46;95750;;;-2.9;82
68965;BME280;56017;48.680;8.998;2023-01-19T05:58:22;95750;;;-2.9;82
68965;BME280;56017;48.680;8.998;2023-01-19T06:00:48;95750;;;-2.9;81.5
68965;BME280;56017;48.680;8.998;2023-01-19T06:03:24;95760;;;-2.9;81.5
68965;BME280;56017;48.680;8.998;2023-01-19T06:05:46;95760;;;-2.9;81.5
68965;BME280;56017;48.680;8.998;2023-01-19T06:08:30;95760;;;-3;82
68965;BME280;56017;48.680;8.998;2023-01-19T06:10:47;95760;;;-3;82
68965;BME280;56017;48.680;8.998;2023-01-19T06:13:30;95760;;;-3;82
68965;BME280;56017;48.680;8.998;2023-01-19T06:15:47;95760;;;-3;82
68965;BME280;56017;48.680;8.998;2023-01-19T06:18:24;95760;;;-3;82.5
68965;BME280;56017;48.680;8.998;2023-01-19T06:20:47;95760;;;-2.9;82
68965;BME280;56017;48.680;8.998;2023-01-19T06:23:26;95770;;;-2.8;82
68965;BME280;56017;48.680;8.998;2023-01-19T06:25:48;95760;;;-2.7;82
68965;BME280;56017;48.680;8.998;2023-01-19T06:28:25;95770;;;-2.7;82
68965;BME280;56017;48.680;8.998;2023-01-19T06:30:55;95780;;;-2.6;82.5
68965;BME280;56017;48.680;8.998;2023-01-19T06:33:26;95770;;;-2.4;82
68965;BME280;56017;48.680;8.998;2023-01-19T06:35:49;95770;;;-2.3;82.5
68965;BME280;56017;48.680;8.998;2023-01-19T06:38:25;95760;;;-2.2;82.5
68965;BME280;56017;48.680;8.998;2023-01-19T06:40:56;95760;;;-2.1;82.5
68965;BME280;56017;48.680;8.998;2023-01-19T06:43:26;95760;;;-2;82.5
68965;BME280;56017;48.680;8.998;2023-01-19T06:45:49;95770;;;-1.9;82.5
68965;BME280;56017;48.680;8.998;2023-01-19T06:48:32;95760;;;-1.8;82.5
68965;BME280;56017;48.680;8.998;2023-01-19T06:50:56;95760;;;-1.8;82.5
68965;BME280;56017;48.680;8.998;2023-01-19T06:55:50;95770;;;-1.8;82.5
68965;BME280;56017;48.680;8.998;2023-01-19T06:58:27;95780;;;-1.8;82
68965;BME280;56017;48.680;8.998;2023-01-19T07:00:50;95780;;;-2;82.5
68965;BME280;56017;48.680;8.998;2023-01-19T07:05:51;95780;;;-2;82.5
68965;BME280;56017;48.680;8.998;2023-01-19T07:08:28;95790;;;-2;82
68965;BME280;56017;48.680;8.998;2023-01-19T07:10:51;95790;;;-2;82
68965;BME280;56017;48.680;8.998;2023-01-19T07:13:29;95790;;;-2.2;82
68965;BME280;56017;48.680;8.998;2023-01-19T07:15:51;95790;;;-2.3;82
68965;BME280;56017;48.680;8.998;2023-01-19T07:18:28;95790;;;-2.4;82
68965;BME280;56017;48.680;8.998;2023-01-19T07:20:58;95780;;;-2.4;82
68965;BME280;56017;48.680;8.998;2023-01-19T07:23:28;95780;;;-2.5;82
68965;BME280;56017;48.680;8.998;2023-01-19T07:25:52;95780;;;-2.5;82
68965;BME280;56017;48.680;8.998;2023-01-19T07:28:29;95790;;;-2.5;82
68965;BME280;56017;48.680;8.998;2023-01-19T07:30:53;95790;;;-2.5;81.5
68965;BME280;56017;48.680;8.998;2023-01-19T07:33:36;95790;;;-2.6;82
68965;BME280;56017;48.680;8.998;2023-01-19T07:35:53;95790;;;-2.5;81.5
68965;BME280;56017;48.680;8.998;2023-01-19T07:38:29;95800;;;-2.5;81.5
68965;BME280;56017;48.680;8.998;2023-01-19T07:41:01;95800;;;-2.6;82
68965;BME280;56017;48.680;8.998;2023-01-19T07:45:55;95800;;;-2.6;82
68965;BME280;56017;48.680;8.998;2023-01-19T07:48:30;95800;;;-2.5;82
68965;BME280;56017;48.680;8.998;2023-01-19T07:50:59;95800;;;-2.5;82.5
68965;BME280;56017;48.680;8.998;2023-01-19T07:53:48;95800;;;-2.4;82
68965;BME280;56017;48.680;8.998;2023-01-19T07:55:55;95810;;;-2.4;82
68965;BME280;56017;48.680;8.998;2023-01-19T07:58:31;95810;;;-2.4;82
68965;BME280;56017;48.680;8.998;2023-01-19T08:05:55;95820;;;-2;82.5
68965;BME280;56017;48.680;8.998;2023-01-19T08:08:32;95820;;;-1.8;82.5
68965;BME280;56017;48.680;8.998;2023-01-19T08:11:02;95820;;;-1.7;82.5
68965;BME280;56017;48.680;8.998;2023-01-19T08:15:56;95820;;;-1.6;82.5
68965;BME280;56017;48.680;8.998;2023-01-19T08:18:32;95820;;;-1.7;82.5
68965;BME280;56017;48.680;8.998;2023-01-19T08:21:03;95820;;;-1.8;82.5
68965;BME280;56017;48.680;8.998;2023-01-19T08:23:33;95820;;;-1.9;82.5
68965;BME280;56017;48.680;8.998;2023-01-19T08:25:56;95820;;;-1.9;83
68965;BME280;56017;48.680;8.998;2023-01-19T08:28:33;95820;;;-1.9;83
68965;BME280;56017;48.680;8.998;2023-01-19T08:30:57;95820;;;-1.8;83
68965;BME280;56017;48.680;8.998;2023-01-19T08:33:27;95820;;;-1.8;83
68965;BME280;56017;48.680;8.998;2023-01-19T08:35:57;95820;;;-1.7;83
68965;BME280;56017;48.680;8.998;2023-01-19T08:38:34;95820;;;-1.6;83
68965;BME280;56017;48.680;8.998;2023-01-19T08:40:57;95820;;;-1.5;83
68965;BME280;56017;48.680;8.998;2023-01-19T08:43:41;95830;;;-1.3;83
68965;BME280;56017;48.680;8.998;2023-01-19T08:45:58;95830;;;-1.2;83
68965;BME280;56017;48.680;8.998;2023-01-19T08:48:35;95830;;;-1.1;83
68965;BME280;56017;48.680;8.998;2023-01-19T08:50:58;95830;;;-1.1;83
68965;BME280;56017;48.680;8.998;2023-01-19T08:53:28;95830;;;-1;83
68965;BME280;56017;48.680;8.998;2023-01-19T08:56:12;95820;;;-0.9;83
68965;BME280;56017;48.680;8.998;2023-01-19T08:58:35;95820;;;-0.9;83
68965;BME280;56017;48.680;8.998;2023-01-19T09:00:59;95820;;;-0.8;83
68965;BME280;56017;48.680;8.998;2023-01-19T09:03:29;95830;;;-0.8;83
68965;BME280;56017;48.680;8.998;2023-01-19T09:05:59;95840;;;-0.7;83
68965;BME280;56017;48.680;8.998;2023-01-19T09:08:36;95840;;;-0.6;82.5
68965;BME280;56017;48.680;8.998;2023-01-19T09:11:00;95840;;;-0.6;82.5
68965;BME280;56017;48.680;8.998;2023-01-19T09:13:30;95840;;;-0.6;83
68965;BME280;56017;48.680;8.998;2023-01-19T09:16:13;95840;;;-0.5;83
68965;BME280;56017;48.680;8.998;2023-01-19T09:18:37;95840;;;-0.5;83
68965;BME280;56017;48.680;8.998;2023-01-19T09:21:01;95840;;;-0.3;83.5
68965;BME280;56017;48.680;8.998;2023-01-19T09:23:30;95840;;;0;83.5
68965;BME280;56017;48.680;8.998;2023-01-19T09:26:14;95850;;;0;82.5
68965;BME280;56017;48.680;8.998;2023-01-19T09:28:31;95850;;;0;82.5
68965;BME280;56017;48.680;8.998;2023-01-19T09:31:03;95840;;;-0.1;82.5
68965;BME280;56017;48.680;8.998;2023-01-19T09:33:31;95840;;;-0.1;83
68965;BME280;56017;48.680;8.998;2023-01-19T09:36:15;95840;;;0.1;83
68965;BME280;56017;48.680;8.998;2023-01-19T09:38:38;95840;;;0.5;82.5
68965;BME280;56017;48.680;8.998;2023-01-19T09:41:02;95840;;;0.9;82
68965;BME280;56017;48.680;8.998;2023-01-19T09:43:33;95840;;;1.2;81.5
68965;BME280;56017;48.680;8.998;2023-01-19T09:46:04;95840;;;1.4;81.5
68965;BME280;56017;48.680;8.998;2023-01-19T09:48:42;95840;;;1.6;82
68965;BME280;56017;48.680;8.998;2023-01-19T09:51:03;95840;;;1.9;82
68965;BME280;56017;48.680;8.998;2023-01-19T09:53:32;95840;;;2;81.5
68965;BME280;56017;48.680;8.998;2023-01-19T09:55:59;95840;;;1.7;82
68965;BME280;56017;48.680;8.998;2023-01-19T09:58:29;95840;;;1.7;83
68965;BME280;56017;48.680;8.998;2023-01-19T10:01:25;95840;;;1.7;82
68965;BME280;56017;48.680;8.998;2023-01-19T10:03:31;95850;;;1.4;82
68965;BME280;56017;48.680;8.998;2023-01-19T10:08:41;95850;;;1.1;83
68965;BME280;56017;48.680;8.998;2023-01-19T10:11:18;95850;;;1;83
68965;BME280;56017;48.680;8.998;2023-01-19T10:13:45;95850;;;0.9;83
68965;BME280;56017;48.680;8.998;2023-01-19T10:16:25;95850;;;1;83.5
68965;BME280;56017;48.680;8.998;2023-01-19T10:18:47;95840;;;1;83.5
68965;BME280;56017;48.680;8.998;2023-01-19T10:21:18;95850;;;1.1;83.5
68965;BME280;56017;48.680;8.998;2023-01-19T10:23:45;95850;;;1.2;83.5
68965;BME280;56017;48.680;8.998;2023-01-19T10:26:26;95850;;;1.2;83
68965;BME280;56017;48.680;8.998;2023-01-19T10:33:28;95850;;;1.4;83
68965;BME280;56017;48.680;8.998;2023-01-19T10:43:37;95850;;;1.3;83.5
68965;BME280;56017;48.680;8.998;2023-01-19T10:48:35;95840;;;1.4;83
68965;BME280;56017;48.680;8.998;2023-01-19T10:53:35;95850;;;1.5;83
68965;BME280;56017;48.680;8.998;2023-01-19T11:03:38;95830;;;1.1;82.5
68965;BME280;56017;48.680;8.998;2023-01-19T11:08:41;95840;;;1;83.5
68965;BME280;56017;48.680;8.998;2023-01-19T11:13:41;95840;;;1.8;82.5
68965;BME280;56017;48.680;8.998;2023-01-19T11:23:45;95830;;;3.8;80
68965;BME280;56017;48.680;8.998;2023-01-19T11:28:46;95830;;;2.6;81.5
68965;BME280;56017;48.680;8.998;2023-01-19T11:33:48;95830;;;3.1;81.5
68965;BME280;56017;48.680;8.998;2023-01-19T11:38:50;95830;;;2.8;82.5
68965;BME280;56017;48.680;8.998;2023-01-19T11:43:51;95820;;;2.6;82
68965;BME280;56017;48.680;8.998;2023-01-19T11:53:53;95810;;;2.8;82
68965;BME280;56017;48.680;8.998;2023-01-19T11:58:55;95800;;;2.6;83
68965;BME280;56017;48.680;8.998;2023-01-19T12:04:06;95800;;;2.7;83
68965;BME280;56017;48.680;8.998;2023-01-19T12:11:30;95800;;;3;82.5
68965;BME280;56017;48.680;8.998;2023-01-19T12:14:00;95810;;;2.9;83
68965;BME280;56017;48.680;8.998;2023-01-19T12:26:50;95810;;;2.8;83.5
68965;BME280;56017;48.680;8.998;2023-01-19T12:29:25;95800;;;2.8;83.5
68965;BME280;56017;48.680;8.998;2023-01-19T12:32:18;95800;;;2.9;83.5
68965;BME280;56017;48.680;8.998;2023-01-19T12:34:38;95790;;;2.8;83.5
68965;BME280;56017;48.680;8.998;2023-01-19T12:39:15;95800;;;2.7;83.5
68965;BME280;56017;48.680;8.998;2023-01-19T12:41:42;95800;;;2.6;83.5
68965;BME280;56017;48.680;8.998;2023-01-19T12:46:45;95810;;;2.5;83.5
68965;BME280;56017;48.680;8.998;2023-01-19T12:49:23;95800;;;2.4;84
68965;BME280;56017;48.680;8.998;2023-01-19T12:51:50;95810;;;2.5;84.5
68965;BME280;56017;48.680;8.998;2023-01-19T12:54:19;95810;;;2.5;84
68965;BME280;56017;48.680;8.998;2023-01-19T12:59:25;95810;;;2.5;84.5
68965;BME280;56017;48.680;8.998;2023-01-19T13:04:28;95810;;;2.5;84
68965;BME280;56017;48.680;8.998;2023-01-19T13:07:05;95810;;;2.5;84.5
68965;BME280;56017;48.680;8.998;2023-01-19T13:09:27;95810;;;2.5;84
68965;BME280;56017;48.680;8.998;2023-01-19T13:19:29;95800;;;2.5;84.5
68965;BME280;56017;48.680;8.998;2023-01-19T13:21:59;95790;;;2.5;84.5
68965;BME280;56017;48.680;8.998;2023-01-19T13:26:59;95800;;;2.5;84.5
68965;BME280;56017;48.680;8.998;2023-01-19T13:29:31;95810;;;2.5;84.5
68965;BME280;56017;48.680;8.998;2023-01-19T13:32:03;95800;;;2.5;84
68965;BME280;56017;48.680;8.998;2023-01-19T13:34:43;95810;;;2.5;84
68965;BME280;56017;48.680;8.998;2023-01-19T13:39:35;95810;;;2.4;84
68965;BME280;56017;48.680;8.998;2023-01-19T13:47:11;95810;;;2.3;84.5
68965;BME280;56017;48.680;8.998;2023-01-19T13:49:39;95820;;;2.3;84.5
68965;BME280;56017;48.680;8.998;2023-01-19T13:52:14;95820;;;2.3;84.5
68965;BME280;56017;48.680;8.998;2023-01-19T13:54:56;95820;;;2.3;84.5
68965;BME280;56017;48.680;8.998;2023-01-19T13:57:43;95810;;;2.3;84.5
68965;BME280;56017;48.680;8.998;2023-01-19T13:59:42;95810;;;2.4;84.5
68965;BME280;56017;48.680;8.998;2023-01-19T14:09:46;95830;;;2.2;84.5
68965;BME280;56017;48.680;8.998;2023-01-19T14:12:18;95830;;;2.2;85
68965;BME280;56017;48.680;8.998;2023-01-19T14:14:48;95840;;;2.2;84.5
68965;BME280;56017;48.680;8.998;2023-01-19T14:17:25;95830;;;2.2;84.5
68965;BME280;56017;48.680;8.998;2023-01-19T14:19:51;95830;;;2.1;84.5
68965;BME280;56017;48.680;8.998;2023-01-19T14:24:52;95830;;;2.1;84.5
68965;BME280;56017;48.680;8.998;2023-01-19T14:27:23;95830;;;2.1;85
68965;BME280;56017;48.680;8.998;2023-01-19T14:29:54;95830;;;2.1;85
68965;BME280;56017;48.680;8.998;2023-01-19T14:37:28;95830;;;2;85
68965;BME280;56017;48.680;8.998;2023-01-19T14:39:59;95830;;;2;85
68965;BME280;56017;48.680;8.998;2023-01-19T14:42:30;95820;;;2;85
68965;BME280;56017;48.680;8.998;2023-01-19T14:45:00;95830;;;2;85
68965;BME280;56017;48.680;8.998;2023-01-19T14:47:38;95830;;;2;85
68965;BME280;56017;48.680;8.998;2023-01-19T14:50:24;95830;;;2.1;84.5
68965;BME280;56017;48.680;8.998;2023-01-19T14:52:35;95830;;;2;85
68965;BME280;56017;48.680;8.998;2023-01-19T14:55:28;95830;;;2;85
68965;BME280;56017;48.680;8.998;2023-01-19T14:57:34;95830;;;2;85
68965;BME280;56017;48.680;8.998;2023-01-19T15:00:10;95830;;;2;85
68965;BME280;56017;48.680;8.998;2023-01-19T15:02:36;95840;;;2;85
68965;BME280;56017;48.680;8.998;2023-01-19T15:05:14;95840;;;2;85
68965;BME280;56017;48.680;8.998;2023-01-19T15:07:39;95840;;;2;85
68965;BME280;56017;48.680;8.998;2023-01-19T15:10:13;95840;;;2;85
68965;BME280;56017;48.680;8.998;2023-01-19T15:12:40;95840;;;2;85
68965;BME280;56017;48.680;8.998;2023-01-19T15:17:51;95830;;;2;85
68965;BME280;56017;48.680;8.998;2023-01-19T15:20:20;95830;;;2;85
68965;BME280;56017;48.680;8.998;2023-01-19T15:22:44;95830;;;2;85
68965;BME280;56017;48.680;8.998;2023-01-19T15:25:18;95830;;;2;84.5
68965;BME280;56017;48.680;8.998;2023-01-19T15:27:46;95830;;;2;85
68965;BME280;56017;48.680;8.998;2023-01-19T15:30:24;95840;;;2;84.5
68965;BME280;56017;48.680;8.998;2023-01-19T15:32:48;95840;;;2;85
68965;BME280;56017;48.680;8.998;2023-01-19T15:35:22;95840;;;2;85
68965;BME280;56017;48.680;8.998;2023-01-19T15:37:50;95840;;;2;85
68965;BME280;56017;48.680;8.998;2023-01-19T15:40:21;95840;;;2;85
68965;BME280;56017;48.680;8.998;2023-01-19T15:42:52;95830;;;2;84.5
68965;BME280;56017;48.680;8.998;2023-01-19T15:45:34;95840;;;2;85
68965;BME280;56017;48.680;8.998;2023-01-19T15:47:54;95830;;;2.2;84.5
68965;BME280;56017;48.680;8.998;2023-01-19T15:50:32;95840;;;2.2;84
68965;BME280;56017;48.680;8.998;2023-01-19T15:52:56;95840;;;2.2;84
68965;BME280;56017;48.680;8.998;2023-01-19T15:55:33;95840;;;2.1;84.5
68965;BME280;56017;48.680;8.998;2023-01-19T15:57:58;95840;;;2.1;84.5
68965;BME280;56017;48.680;8.998;2023-01-19T16:00:30;95840;;;2.2;84.5
68965;BME280;56017;48.680;8.998;2023-01-19T16:03:06;95830;;;2.1;84
68965;BME280;56017;48.680;8.998;2023-01-19T16:05:31;95830;;;2.1;84.5
68965;BME280;56017;48.680;8.998;2023-01-19T16:08:01;95830;;;2;84
68965;BME280;56017;48.680;8.998;2023-01-19T16:10:33;95830;;;2;84.5
68965;BME280;56017;48.680;8.998;2023-01-19T16:13:03;95830;;;2;84.5
68965;BME280;56017;48.680;8.998;2023-01-19T16:15:41;95830;;;2;84.5
68965;BME280;56017;48.680;8.998;2023-01-19T16:18:05;95830;;;2;84.5
68965;BME280;56017;48.680;8.998;2023-01-19T16:20:37;95830;;;1.9;84.5
68965;BME280;56017;48.680;8.998;2023-01-19T16:23:07;95830;;;1.9;84.5
68965;BME280;56017;48.680;8.998;2023-01-19T16:25:40;95840;;;1.9;84.5
68965;BME280;56017;48.680;8.998;2023-01-19T16:28:09;95840;;;2;84.5
68965;BME280;56017;48.680;8.998;2023-01-19T16:30:47;95840;;;2.1;84
68965;BME280;56017;48.680;8.998;2023-01-19T16:33:11;95840;;;2.1;83.5
68965;BME280;56017;48.680;8.998;2023-01-19T16:35:46;95840;;;2.1;83.5
68965;BME280;56017;48.680;8.998;2023-01-19T16:38:15;95840;;;2.1;83.5
68965;BME280;56017;48.680;8.998;2023-01-19T16:40:51;95840;;;2.1;83
68965;BME280;56017;48.680;8.998;2023-01-19T16:43:15;95840;;;1.9;83.5
68965;BME280;56017;48.680;8.998;2023-01-19T16:45:55;95850;;;1.9;83.5
68965;BME280;56017;48.680;8.998;2023-01-19T16:48:17;95850;;;1.8;84
68965;BME280;56017;48.680;8.998;2023-01-19T16:50:57;95840;;;1.8;84
68965;BME280;56017;48.680;8.998;2023-01-19T16:53:19;95840;;;1.7;84
68965;BME280;56017;48.680;8.998;2023-01-19T16:55:57;95840;;;1.8;84
68965;BME280;56017;48.680;8.998;2023-01-19T16:58:21;95840;;;1.8;84
68965;BME280;56017;48.680;8.998;2023-01-19T17:00:52;95850;;;1.7;83.5
68965;BME280;56017;48.680;8.998;2023-01-19T17:03:23;95840;;;1.7;84
68965;BME280;56017;48.680;8.998;2023-01-19T17:08:25;95840;;;1.7;84
68965;BME280;56017;48.680;8.998;2023-01-19T17:10:56;95840;;;1.6;84
68965;BME280;56017;48.680;8.998;2023-01-19T17:13:28;95840;;;1.5;84
68965;BME280;56017;48.680;8.998;2023-01-19T17:16:05;95840;;;1.5;84
68965;BME280;56017;48.680;8.998;2023-01-19T17:18:31;95840;;;1.4;84
68965;BME280;56017;48.680;8.998;2023-01-19T17:21:02;95840;;;1.5;84.5